MMZO/ZLO METAR and TAF weather

Enter ICAO airport designator
Station Type Date Time Source
MMZO METAR 2019/10/15 01:43 UTC NOAA

MMZO 150143Z 28008KT 12SM SCT025 SCT120 BKN250 29/26 A2983 RMK 8/563


Station Type Date Time Source
MMZO Decoded METAR 2019/10/15 01:43 UTC NOAA

Manzanillo International , Mexico (MMZO) 19-09N 104-34W
Oct 14, 2019 - 09:43 PM EDT / 2019.10.15 0143 UTC
Wind: from the W (280 degrees) at 9 MPH (8 KT):0
Visibility: 12 mile(s):0
Sky conditions: mostly cloudy
Temperature: 84 F (29 C)
Dew Point: 78 F (26 C)
Relative Humidity: 83%
Pressure (altimeter): 29.83 in. Hg (1010 hPa)
ob: MMZO 150143Z 28008KT 12SM SCT025 SCT120 BKN250 29/26 A2983 RMK 8/563
cycle: 1

Station Type Date Time Source
MMZO TAF 2019/10/14 18:57 UTC NOAA

TAF MMZO 141650Z 1418/1518 24010KT P6SM SCT020
FM150300 00000KT P6SM SCT250

Example: see airport list